sensor_id;sensor_type;location;lat;lon;timestamp;pressure;altitude;pressure_sealevel;temperature;humidity
6389;BME280;3227;42.654;23.360;2023-07-29T00:01:03;94313.09;;;21.63;54.61
6389;BME280;3227;42.654;23.360;2023-07-29T00:03:30;94316.47;;;21.65;54.71
6389;BME280;3227;42.654;23.360;2023-07-29T00:05:57;94315.41;;;21.69;54.71
6389;BME280;3227;42.654;23.360;2023-07-29T00:08:24;94311.09;;;21.68;55.14
6389;BME280;3227;42.654;23.360;2023-07-29T00:10:51;94320.50;;;21.72;55.02
6389;BME280;3227;42.654;23.360;2023-07-29T00:13:20;94318.84;;;21.70;55.90
6389;BME280;3227;42.654;23.360;2023-07-29T00:15:46;94326.13;;;21.63;55.14
6389;BME280;3227;42.654;23.360;2023-07-29T00:18:13;94317.88;;;21.53;54.83
6389;BME280;3227;42.654;23.360;2023-07-29T00:20:40;94316.25;;;21.51;55.19
6389;BME280;3227;42.654;23.360;2023-07-29T00:23:07;94322.13;;;21.56;55.65
6389;BME280;3227;42.654;23.360;2023-07-29T00:25:33;94320.41;;;21.55;56.02
6389;BME280;3227;42.654;23.360;2023-07-29T00:28:00;94234.91;;;21.05;56.43
6389;BME280;3227;42.654;23.360;2023-07-29T00:30:28;94319.69;;;21.51;56.48
6389;BME280;3227;42.654;23.360;2023-07-29T00:32:55;94313.63;;;21.51;56.28
6389;BME280;3227;42.654;23.360;2023-07-29T00:35:27;94314.63;;;21.48;56.49
6389;BME280;3227;42.654;23.360;2023-07-29T00:37:54;94314.22;;;21.39;56.74
6389;BME280;3227;42.654;23.360;2023-07-29T00:40:21;94295.59;;;21.27;57.11
6389;BME280;3227;42.654;23.360;2023-07-29T00:42:49;94255.09;;;21.00;57.53
6389;BME280;3227;42.654;23.360;2023-07-29T00:45:17;94304.88;;;21.33;57.77
6389;BME280;3227;42.654;23.360;2023-07-29T00:47:45;94311.94;;;21.31;57.57
6389;BME280;3227;42.654;23.360;2023-07-29T00:50:13;94301.53;;;21.31;57.86
6389;BME280;3227;42.654;23.360;2023-07-29T00:52:41;94300.97;;;21.24;57.95
6389;BME280;3227;42.654;23.360;2023-07-29T00:55:18;94298.53;;;21.20;57.84
6389;BME280;3227;42.654;23.360;2023-07-29T00:57:45;94297.69;;;21.19;58.18
6389;BME280;3227;42.654;23.360;2023-07-29T01:00:14;94312.59;;;21.16;57.97
6389;BME280;3227;42.654;23.360;2023-07-29T01:02:42;94267.63;;;20.92;58.62
6389;BME280;3227;42.654;23.360;2023-07-29T01:05:12;94292.00;;;21.10;58.71
6389;BME280;3227;42.654;23.360;2023-07-29T01:07:45;94295.63;;;21.07;59.07
6389;BME280;3227;42.654;23.360;2023-07-29T01:10:19;94297.38;;;21.07;58.90
6389;BME280;3227;42.654;23.360;2023-07-29T01:12:52;94292.28;;;21.04;58.82
6389;BME280;3227;42.654;23.360;2023-07-29T01:15:24;94294.09;;;21.02;58.55
6389;BME280;3227;42.654;23.360;2023-07-29T01:17:55;94285.72;;;20.95;58.31
6389;BME280;3227;42.654;23.360;2023-07-29T01:20:25;94275.00;;;20.82;58.11
6389;BME280;3227;42.654;23.360;2023-07-29T01:22:52;94296.03;;;20.98;58.58
6389;BME280;3227;42.654;23.360;2023-07-29T01:25:20;94291.84;;;20.94;58.14
6389;BME280;3227;42.654;23.360;2023-07-29T01:27:48;94297.97;;;20.93;58.08
6389;BME280;3227;42.654;23.360;2023-07-29T01:30:17;94296.34;;;20.91;58.25
6389;BME280;3227;42.654;23.360;2023-07-29T01:32:51;94293.03;;;20.87;57.99
6389;BME280;3227;42.654;23.360;2023-07-29T01:35:23;94290.31;;;20.90;58.51
6389;BME280;3227;42.654;23.360;2023-07-29T01:37:54;94253.28;;;20.63;58.22
6389;BME280;3227;42.654;23.360;2023-07-29T01:40:26;94296.53;;;20.86;58.75
6389;BME280;3227;42.654;23.360;2023-07-29T01:42:53;94236.69;;;20.45;58.64
6389;BME280;3227;42.654;23.360;2023-07-29T01:45:23;94218.19;;;20.31;58.98
6389;BME280;3227;42.654;23.360;2023-07-29T01:47:50;94294.66;;;20.69;59.10
6389;BME280;3227;42.654;23.360;2023-07-29T01:50:17;94307.94;;;20.63;59.82
6389;BME280;3227;42.654;23.360;2023-07-29T01:52:43;94293.44;;;20.58;60.26
6389;BME280;3227;42.654;23.360;2023-07-29T01:55:10;94299.56;;;20.57;60.24
6389;BME280;3227;42.654;23.360;2023-07-29T01:57:38;94297.91;;;20.54;60.45
6389;BME280;3227;42.654;23.360;2023-07-29T02:00:08;94295.59;;;20.48;60.61
6389;BME280;3227;42.654;23.360;2023-07-29T02:02:34;94296.81;;;20.39;61.58
6389;BME280;3227;42.654;23.360;2023-07-29T02:05:01;94300.56;;;20.32;61.17
6389;BME280;3227;42.654;23.360;2023-07-29T02:07:28;94302.25;;;20.33;60.72
6389;BME280;3227;42.654;23.360;2023-07-29T02:09:55;94295.22;;;20.35;60.60
6389;BME280;3227;42.654;23.360;2023-07-29T02:12:21;94301.81;;;20.44;60.47
6389;BME280;3227;42.654;23.360;2023-07-29T02:14:50;94307.75;;;20.47;60.51
6389;BME280;3227;42.654;23.360;2023-07-29T02:17:16;94304.25;;;20.48;60.73
6389;BME280;3227;42.654;23.360;2023-07-29T02:19:43;94307.75;;;20.47;60.02
6389;BME280;3227;42.654;23.360;2023-07-29T02:22:12;94309.44;;;20.48;59.92
6389;BME280;3227;42.654;23.360;2023-07-29T02:24:39;94323.38;;;20.47;59.51
6389;BME280;3227;42.654;23.360;2023-07-29T02:27:09;94302.81;;;20.41;59.05
6389;BME280;3227;42.654;23.360;2023-07-29T02:29:35;94311.38;;;20.43;58.99
6389;BME280;3227;42.654;23.360;2023-07-29T02:32:03;94304.63;;;20.39;59.22
6389;BME280;3227;42.654;23.360;2023-07-29T02:34:30;94302.97;;;20.37;57.54
6389;BME280;3227;42.654;23.360;2023-07-29T02:36:57;94311.75;;;20.34;58.63
6389;BME280;3227;42.654;23.360;2023-07-29T02:39:24;94305.16;;;20.26;58.30
6389;BME280;3227;42.654;23.360;2023-07-29T02:41:51;94309.75;;;20.19;59.60
6389;BME280;3227;42.654;23.360;2023-07-29T02:44:18;94308.25;;;20.13;59.55
6389;BME280;3227;42.654;23.360;2023-07-29T02:46:45;94301.34;;;20.12;60.18
6389;BME280;3227;42.654;23.360;2023-07-29T02:49:13;94289.56;;;20.04;59.38
6389;BME280;3227;42.654;23.360;2023-07-29T02:51:40;94301.47;;;20.09;58.64
6389;BME280;3227;42.654;23.360;2023-07-29T02:54:07;94299.72;;;20.10;59.02
6389;BME280;3227;42.654;23.360;2023-07-29T02:56:43;94304.81;;;20.13;59.33
6389;BME280;3227;42.654;23.360;2023-07-29T02:59:10;94297.00;;;20.13;60.14
6389;BME280;3227;42.654;23.360;2023-07-29T03:01:37;94304.81;;;20.13;59.70
6389;BME280;3227;42.654;23.360;2023-07-29T03:04:04;94310.81;;;20.15;59.55
6389;BME280;3227;42.654;23.360;2023-07-29T03:06:32;94308.16;;;20.17;59.33
6389;BME280;3227;42.654;23.360;2023-07-29T03:08:59;94318.41;;;20.20;59.39
6389;BME280;3227;42.654;23.360;2023-07-29T03:11:25;94325.13;;;20.25;59.17
6389;BME280;3227;42.654;23.360;2023-07-29T03:13:52;94329.34;;;20.28;59.27
6389;BME280;3227;42.654;23.360;2023-07-29T03:16:19;94328.38;;;20.30;58.53
6389;BME280;3227;42.654;23.360;2023-07-29T03:18:46;94329.41;;;20.26;58.60
6389;BME280;3227;42.654;23.360;2023-07-29T03:21:12;94334.38;;;20.32;58.96
6389;BME280;3227;42.654;23.360;2023-07-29T03:23:41;94336.69;;;20.40;58.92
6389;BME280;3227;42.654;23.360;2023-07-29T03:26:08;94322.22;;;20.75;57.50
6389;BME280;3227;42.654;23.360;2023-07-29T03:28:37;94327.31;;;21.37;55.68
6389;BME280;3227;42.654;23.360;2023-07-29T03:31:04;94325.84;;;22.07;53.64
6389;BME280;3227;42.654;23.360;2023-07-29T03:33:31;94331.53;;;22.85;51.17
6389;BME280;3227;42.654;23.360;2023-07-29T03:35:58;94300.63;;;23.43;48.83
6389;BME280;3227;42.654;23.360;2023-07-29T03:38:26;94329.81;;;24.32;46.56
6389;BME280;3227;42.654;23.360;2023-07-29T03:40:56;94331.78;;;25.04;45.02
6389;BME280;3227;42.654;23.360;2023-07-29T03:43:23;94328.53;;;25.71;43.16
6389;BME280;3227;42.654;23.360;2023-07-29T03:45:49;94341.78;;;26.25;41.40
6389;BME280;3227;42.654;23.360;2023-07-29T03:48:16;94340.31;;;26.87;40.65
6389;BME280;3227;42.654;23.360;2023-07-29T03:50:43;94333.59;;;27.48;39.20
6389;BME280;3227;42.654;23.360;2023-07-29T03:53:09;94334.47;;;28.10;37.55
6389;BME280;3227;42.654;23.360;2023-07-29T03:55:36;94331.22;;;28.67;36.31
6389;BME280;3227;42.654;23.360;2023-07-29T03:58:07;94331.31;;;29.13;35.05
6389;BME280;3227;42.654;23.360;2023-07-29T04:00:34;94331.19;;;29.61;34.13
6389;BME280;3227;42.654;23.360;2023-07-29T04:03:01;94331.47;;;30.13;33.44
6389;BME280;3227;42.654;23.360;2023-07-29T04:05:28;94339.91;;;30.50;32.37
6389;BME280;3227;42.654;23.360;2023-07-29T04:07:54;94339.69;;;30.96;31.78
6389;BME280;3227;42.654;23.360;2023-07-29T04:10:21;94335.84;;;31.42;31.48
6389;BME280;3227;42.654;23.360;2023-07-29T04:12:48;94324.03;;;31.67;30.76
6389;BME280;3227;42.654;23.360;2023-07-29T04:15:16;94351.03;;;32.12;30.12
6389;BME280;3227;42.654;23.360;2023-07-29T04:17:43;94346.75;;;32.30;29.96
6389;BME280;3227;42.654;23.360;2023-07-29T04:20:11;94348.78;;;32.47;29.43
6389;BME280;3227;42.654;23.360;2023-07-29T04:22:37;94344.94;;;32.71;28.53
6389;BME280;3227;42.654;23.360;2023-07-29T04:25:07;94344.09;;;32.70;28.64
6389;BME280;3227;42.654;23.360;2023-07-29T04:27:34;94350.75;;;32.55;28.18
6389;BME280;3227;42.654;23.360;2023-07-29T04:30:01;94344.91;;;32.21;28.87
6389;BME280;3227;42.654;23.360;2023-07-29T04:32:29;94344.28;;;32.38;28.28
6389;BME280;3227;42.654;23.360;2023-07-29T04:34:55;94342.69;;;31.96;28.97
6389;BME280;3227;42.654;23.360;2023-07-29T04:37:22;94346.19;;;32.17;28.58
6389;BME280;3227;42.654;23.360;2023-07-29T04:39:49;94342.25;;;31.91;28.86
6389;BME280;3227;42.654;23.360;2023-07-29T04:42:16;94344.44;;;31.76;29.46
6389;BME280;3227;42.654;23.360;2023-07-29T04:44:42;94349.47;;;32.09;28.90
6389;BME280;3227;42.654;23.360;2023-07-29T04:47:09;94351.91;;;32.22;28.62
6389;BME280;3227;42.654;23.360;2023-07-29T04:49:38;94355.22;;;32.45;28.87
6389;BME280;3227;42.654;23.360;2023-07-29T04:52:05;94351.53;;;32.86;28.15
6389;BME280;3227;42.654;23.360;2023-07-29T04:54:32;94357.84;;;33.33;27.53
6389;BME280;3227;42.654;23.360;2023-07-29T04:56:59;94304.03;;;33.21;27.10
6389;BME280;3227;42.654;23.360;2023-07-29T04:59:25;94360.06;;;33.57;27.09
6389;BME280;3227;42.654;23.360;2023-07-29T05:01:52;94361.69;;;33.77;27.20
6389;BME280;3227;42.654;23.360;2023-07-29T05:04:19;94359.06;;;33.68;26.97
6389;BME280;3227;42.654;23.360;2023-07-29T05:06:47;94363.81;;;33.83;27.47
6389;BME280;3227;42.654;23.360;2023-07-29T05:09:14;94362.97;;;33.83;27.25
6389;BME280;3227;42.654;23.360;2023-07-29T05:11:41;94361.47;;;33.51;27.41
6389;BME280;3227;42.654;23.360;2023-07-29T05:14:09;94379.78;;;33.45;27.31
6389;BME280;3227;42.654;23.360;2023-07-29T05:16:35;94371.97;;;33.34;27.17
6389;BME280;3227;42.654;23.360;2023-07-29T05:19:02;94374.56;;;32.95;27.94
6389;BME280;3227;42.654;23.360;2023-07-29T05:21:29;94374.84;;;32.82;28.37
6389;BME280;3227;42.654;23.360;2023-07-29T05:23:59;94369.81;;;32.89;28.07
6389;BME280;3227;42.654;23.360;2023-07-29T05:26:25;94377.94;;;32.97;28.27
6389;BME280;3227;42.654;23.360;2023-07-29T05:28:52;94381.00;;;32.83;27.89
6389;BME280;3227;42.654;23.360;2023-07-29T05:31:19;94382.22;;;32.79;28.51
6389;BME280;3227;42.654;23.360;2023-07-29T05:33:46;94390.47;;;32.76;28.28
6389;BME280;3227;42.654;23.360;2023-07-29T05:36:12;94382.81;;;32.42;28.76
6389;BME280;3227;42.654;23.360;2023-07-29T05:38:39;94384.84;;;31.68;29.23
6389;BME280;3227;42.654;23.360;2023-07-29T05:41:09;94369.91;;;31.15;30.75
6389;BME280;3227;42.654;23.360;2023-07-29T05:43:35;94388.38;;;30.94;31.95
6389;BME280;3227;42.654;23.360;2023-07-29T05:46:02;94396.06;;;30.97;31.90
6389;BME280;3227;42.654;23.360;2023-07-29T05:48:29;94396.47;;;30.81;31.61
6389;BME280;3227;42.654;23.360;2023-07-29T05:50:55;94392.47;;;30.55;33.27
6389;BME280;3227;42.654;23.360;2023-07-29T05:53:22;94382.84;;;30.54;32.80
6389;BME280;3227;42.654;23.360;2023-07-29T05:55:49;94376.81;;;30.41;32.64
6389;BME280;3227;42.654;23.360;2023-07-29T05:58:17;94394.16;;;30.22;32.52
6389;BME280;3227;42.654;23.360;2023-07-29T06:00:44;94380.81;;;30.02;33.25
6389;BME280;3227;42.654;23.360;2023-07-29T06:03:11;94384.63;;;29.86;33.62
6389;BME280;3227;42.654;23.360;2023-07-29T06:05:38;94377.06;;;29.93;34.79
6389;BME280;3227;42.654;23.360;2023-07-29T06:08:05;94387.63;;;29.93;33.62
6389;BME280;3227;42.654;23.360;2023-07-29T06:10:34;94384.75;;;29.85;34.78
6389;BME280;3227;42.654;23.360;2023-07-29T06:13:01;94367.72;;;29.89;34.44
6389;BME280;3227;42.654;23.360;2023-07-29T06:15:29;94381.41;;;30.27;33.51
6389;BME280;3227;42.654;23.360;2023-07-29T06:17:55;94375.13;;;30.40;33.79
6389;BME280;3227;42.654;23.360;2023-07-29T06:20:22;94376.09;;;30.61;33.67
6389;BME280;3227;42.654;23.360;2023-07-29T06:22:49;94378.00;;;30.70;32.89
6389;BME280;3227;42.654;23.360;2023-07-29T06:25:16;94376.19;;;30.71;32.92
6389;BME280;3227;42.654;23.360;2023-07-29T06:27:42;94377.56;;;30.54;33.64
6389;BME280;3227;42.654;23.360;2023-07-29T06:30:10;94378.72;;;30.50;33.37
6389;BME280;3227;42.654;23.360;2023-07-29T06:32:38;94373.72;;;30.36;33.90
6389;BME280;3227;42.654;23.360;2023-07-29T06:35:05;94369.63;;;29.98;33.58
6389;BME280;3227;42.654;23.360;2023-07-29T06:37:32;94365.88;;;29.67;34.70
6389;BME280;3227;42.654;23.360;2023-07-29T06:39:59;94362.72;;;29.40;35.53
6389;BME280;3227;42.654;23.360;2023-07-29T06:42:26;94362.28;;;29.22;35.39
6389;BME280;3227;42.654;23.360;2023-07-29T06:44:53;94354.84;;;28.92;35.48
6389;BME280;3227;42.654;23.360;2023-07-29T06:47:19;94349.34;;;28.71;36.14
6389;BME280;3227;42.654;23.360;2023-07-29T06:49:47;94351.25;;;28.69;36.35
6389;BME280;3227;42.654;23.360;2023-07-29T06:52:14;94350.41;;;28.82;35.72
6389;BME280;3227;42.654;23.360;2023-07-29T06:54:41;94360.88;;;28.94;36.67
6389;BME280;3227;42.654;23.360;2023-07-29T06:57:08;94340.13;;;29.01;36.12
6389;BME280;3227;42.654;23.360;2023-07-29T06:59:36;94344.78;;;29.32;35.83
6389;BME280;3227;42.654;23.360;2023-07-29T07:02:03;94354.13;;;29.14;35.61
6389;BME280;3227;42.654;23.360;2023-07-29T07:04:29;94357.63;;;28.91;36.31
6389;BME280;3227;42.654;23.360;2023-07-29T07:06:58;94290.81;;;28.31;37.14
6389;BME280;3227;42.654;23.360;2023-07-29T07:09:26;94352.72;;;28.73;37.30
6389;BME280;3227;42.654;23.360;2023-07-29T07:11:52;94361.31;;;28.64;37.75
6389;BME280;3227;42.654;23.360;2023-07-29T07:14:19;94356.59;;;28.57;37.92
6389;BME280;3227;42.654;23.360;2023-07-29T07:16:46;94351.66;;;28.52;37.67
6389;BME280;3227;42.654;23.360;2023-07-29T07:19:12;94352.94;;;28.47;37.61
6389;BME280;3227;42.654;23.360;2023-07-29T07:21:39;94357.44;;;28.57;38.04
6389;BME280;3227;42.654;23.360;2023-07-29T07:24:07;94358.28;;;28.58;37.63
6389;BME280;3227;42.654;23.360;2023-07-29T07:26:34;94348.97;;;28.65;38.26
6389;BME280;3227;42.654;23.360;2023-07-29T07:29:01;94346.19;;;28.79;38.47
6389;BME280;3227;42.654;23.360;2023-07-29T07:31:28;94345.34;;;28.79;37.45
6389;BME280;3227;42.654;23.360;2023-07-29T07:33:54;94357.81;;;28.64;37.63
6389;BME280;3227;42.654;23.360;2023-07-29T07:36:21;94347.44;;;28.50;38.37
6389;BME280;3227;42.654;23.360;2023-07-29T07:38:48;94347.03;;;28.43;37.60
6389;BME280;3227;42.654;23.360;2023-07-29T07:41:16;94343.31;;;28.09;39.18
6389;BME280;3227;42.654;23.360;2023-07-29T07:43:42;94351.97;;;28.11;38.33
6389;BME280;3227;42.654;23.360;2023-07-29T07:46:09;94343.94;;;28.13;38.31
6389;BME280;3227;42.654;23.360;2023-07-29T07:48:37;94343.00;;;28.14;37.79
6389;BME280;3227;42.654;23.360;2023-07-29T07:51:10;94349.00;;;27.67;38.42
6389;BME280;3227;42.654;23.360;2023-07-29T07:53:37;94338.66;;;27.63;39.03
6389;BME280;3227;42.654;23.360;2023-07-29T07:56:04;94342.22;;;27.88;39.29
6389;BME280;3227;42.654;23.360;2023-07-29T07:58:32;94296.75;;;27.73;38.17
6389;BME280;3227;42.654;23.360;2023-07-29T08:01:03;94350.19;;;28.24;38.00
6389;BME280;3227;42.654;23.360;2023-07-29T08:03:30;94348.22;;;28.39;37.75
6389;BME280;3227;42.654;23.360;2023-07-29T08:06:06;94348.34;;;28.61;38.01
6389;BME280;3227;42.654;23.360;2023-07-29T08:08:33;94352.09;;;28.70;36.75
6389;BME280;3227;42.654;23.360;2023-07-29T08:11:00;94348.63;;;28.93;36.04
6389;BME280;3227;42.654;23.360;2023-07-29T08:13:27;94353.69;;;28.72;36.25
6389;BME280;3227;42.654;23.360;2023-07-29T08:15:55;94354.44;;;28.62;36.38
6389;BME280;3227;42.654;23.360;2023-07-29T08:18:22;94355.19;;;28.40;37.28
6389;BME280;3227;42.654;23.360;2023-07-29T08:20:52;94349.34;;;28.24;37.32
6389;BME280;3227;42.654;23.360;2023-07-29T08:23:20;94325.94;;;28.19;38.22
6389;BME280;3227;42.654;23.360;2023-07-29T08:25:52;94314.69;;;28.05;37.24
6389;BME280;3227;42.654;23.360;2023-07-29T08:28:19;94348.88;;;28.30;37.25
6389;BME280;3227;42.654;23.360;2023-07-29T08:30:46;94346.09;;;28.44;37.36
6389;BME280;3227;42.654;23.360;2023-07-29T08:33:14;94331.97;;;28.45;36.11
6389;BME280;3227;42.654;23.360;2023-07-29T08:35:41;94346.19;;;28.43;36.35
6389;BME280;3227;42.654;23.360;2023-07-29T08:38:08;94340.53;;;28.36;36.66
6389;BME280;3227;42.654;23.360;2023-07-29T08:40:37;94333.19;;;28.52;36.44
6389;BME280;3227;42.654;23.360;2023-07-29T08:43:09;94342.72;;;28.42;35.49
6389;BME280;3227;42.654;23.360;2023-07-29T08:45:38;94340.22;;;28.41;35.71
6389;BME280;3227;42.654;23.360;2023-07-29T08:48:08;94337.50;;;28.53;35.82
6389;BME280;3227;42.654;23.360;2023-07-29T08:50:37;94334.00;;;28.65;35.38
6389;BME280;3227;42.654;23.360;2023-07-29T08:53:04;94329.69;;;28.75;35.39
6389;BME280;3227;42.654;23.360;2023-07-29T08:55:32;94317.91;;;28.81;35.20
6389;BME280;3227;42.654;23.360;2023-07-29T08:57:59;94323.84;;;28.72;33.76
6389;BME280;3227;42.654;23.360;2023-07-29T09:00:27;94319.16;;;28.75;33.98
6389;BME280;3227;42.654;23.360;2023-07-29T09:02:54;94316.50;;;28.88;33.10
6389;BME280;3227;42.654;23.360;2023-07-29T09:05:23;94312.47;;;29.06;32.19
6389;BME280;3227;42.654;23.360;2023-07-29T09:07:51;94254.97;;;28.88;32.49
6389;BME280;3227;42.654;23.360;2023-07-29T09:10:21;94315.47;;;29.48;33.08
6389;BME280;3227;42.654;23.360;2023-07-29T09:12:48;94312.47;;;29.64;32.74
6389;BME280;3227;42.654;23.360;2023-07-29T09:15:26;94308.75;;;29.77;32.66
6389;BME280;3227;42.654;23.360;2023-07-29T09:17:53;94310.53;;;29.77;30.85
6389;BME280;3227;42.654;23.360;2023-07-29T09:20:24;94317.03;;;29.73;31.18
6389;BME280;3227;42.654;23.360;2023-07-29T09:22:53;94311.50;;;29.76;30.19
6389;BME280;3227;42.654;23.360;2023-07-29T09:25:24;94264.06;;;29.30;29.94
6389;BME280;3227;42.654;23.360;2023-07-29T09:27:51;94299.22;;;29.41;29.10
6389;BME280;3227;42.654;23.360;2023-07-29T09:30:18;94297.13;;;29.11;29.24
6389;BME280;3227;42.654;23.360;2023-07-29T09:32:45;94292.44;;;29.04;29.14
6389;BME280;3227;42.654;23.360;2023-07-29T09:35:12;94289.44;;;29.08;30.46
6389;BME280;3227;42.654;23.360;2023-07-29T09:37:39;94294.78;;;29.31;32.25
6389;BME280;3227;42.654;23.360;2023-07-29T09:40:14;94293.13;;;29.52;31.61
6389;BME280;3227;42.654;23.360;2023-07-29T09:42:47;94292.78;;;29.68;29.94
6389;BME280;3227;42.654;23.360;2023-07-29T09:45:19;94293.75;;;29.78;30.05
6389;BME280;3227;42.654;23.360;2023-07-29T09:47:47;94291.94;;;29.89;30.56
6389;BME280;3227;42.654;23.360;2023-07-29T09:50:13;94291.22;;;29.99;30.70
6389;BME280;3227;42.654;23.360;2023-07-29T09:52:41;94288.47;;;30.00;30.37
6389;BME280;3227;42.654;23.360;2023-07-29T09:55:10;94287.50;;;30.12;30.19
6389;BME280;3227;42.654;23.360;2023-07-29T09:57:37;94286.16;;;30.18;29.90
6389;BME280;3227;42.654;23.360;2023-07-29T10:00:05;94276.47;;;29.96;29.98
6389;BME280;3227;42.654;23.360;2023-07-29T10:02:36;94280.28;;;29.70;30.23
6389;BME280;3227;42.654;23.360;2023-07-29T10:05:04;94280.53;;;29.56;30.57
6389;BME280;3227;42.654;23.360;2023-07-29T10:07:33;94271.16;;;29.51;30.74
6389;BME280;3227;42.654;23.360;2023-07-29T10:10:01;94275.38;;;29.54;30.60
6389;BME280;3227;42.654;23.360;2023-07-29T10:12:30;94271.88;;;29.42;30.13
6389;BME280;3227;42.654;23.360;2023-07-29T10:14:59;94269.06;;;29.33;30.30
6389;BME280;3227;42.654;23.360;2023-07-29T10:17:26;94174.97;;;28.65;30.93
6389;BME280;3227;42.654;23.360;2023-07-29T10:19:55;94266.53;;;29.09;30.55
6389;BME280;3227;42.654;23.360;2023-07-29T10:22:25;94221.66;;;28.87;30.39
6389;BME280;3227;42.654;23.360;2023-07-29T10:24:54;94249.25;;;29.16;30.65
6389;BME280;3227;42.654;23.360;2023-07-29T10:27:23;94251.22;;;29.14;30.10
6389;BME280;3227;42.654;23.360;2023-07-29T10:29:55;94240.72;;;29.01;30.27
6389;BME280;3227;42.654;23.360;2023-07-29T10:32:24;94243.28;;;29.14;30.15
6389;BME280;3227;42.654;23.360;2023-07-29T10:34:51;94234.09;;;28.85;30.71
6389;BME280;3227;42.654;23.360;2023-07-29T10:37:19;94227.53;;;28.90;30.71
6389;BME280;3227;42.654;23.360;2023-07-29T10:39:53;94224.31;;;29.09;30.67
6389;BME280;3227;42.654;23.360;2023-07-29T10:42:20;94226.97;;;29.20;30.92
6389;BME280;3227;42.654;23.360;2023-07-29T10:44:49;94220.31;;;29.38;31.04
6389;BME280;3227;42.654;23.360;2023-07-29T10:47:20;94230.13;;;29.59;31.01
6389;BME280;3227;42.654;23.360;2023-07-29T10:49:50;94227.47;;;29.70;29.83
6389;BME280;3227;42.654;23.360;2023-07-29T10:52:29;94229.06;;;29.72;29.75
6389;BME280;3227;42.654;23.360;2023-07-29T10:55:02;94220.50;;;29.69;30.01
6389;BME280;3227;42.654;23.360;2023-07-29T10:57:33;94221.50;;;29.57;29.08
6389;BME280;3227;42.654;23.360;2023-07-29T11:00:01;94207.19;;;29.26;30.00
6389;BME280;3227;42.654;23.360;2023-07-29T11:02:31;94167.13;;;28.98;29.81
6389;BME280;3227;42.654;23.360;2023-07-29T11:04:59;94203.59;;;29.27;29.76
6389;BME280;3227;42.654;23.360;2023-07-29T11:07:26;94165.31;;;29.10;29.44
6389;BME280;3227;42.654;23.360;2023-07-29T11:10:02;94207.34;;;29.46;29.00
6389;BME280;3227;42.654;23.360;2023-07-29T11:12:38;94209.59;;;29.51;28.76
6389;BME280;3227;42.654;23.360;2023-07-29T11:15:13;94201.56;;;29.64;28.50
6389;BME280;3227;42.654;23.360;2023-07-29T11:17:42;94134.38;;;29.45;28.92
6389;BME280;3227;42.654;23.360;2023-07-29T11:20:10;94197.66;;;29.90;28.03
6389;BME280;3227;42.654;23.360;2023-07-29T11:22:38;94177.66;;;29.76;28.05
6389;BME280;3227;42.654;23.360;2023-07-29T11:25:07;94198.06;;;29.74;27.84
6389;BME280;3227;42.654;23.360;2023-07-29T11:27:34;94196.28;;;29.64;28.07
6389;BME280;3227;42.654;23.360;2023-07-29T11:30:02;94196.91;;;29.56;28.62
6389;BME280;3227;42.654;23.360;2023-07-29T11:32:30;94200.00;;;29.50;28.32
6389;BME280;3227;42.654;23.360;2023-07-29T11:35:01;94199.78;;;29.64;27.87
6389;BME280;3227;42.654;23.360;2023-07-29T11:37:28;94186.66;;;29.74;27.72
6389;BME280;3227;42.654;23.360;2023-07-29T11:39:55;94185.66;;;29.86;28.13
6389;BME280;3227;42.654;23.360;2023-07-29T11:42:21;94177.97;;;30.05;27.59
6389;BME280;3227;42.654;23.360;2023-07-29T11:44:48;94179.47;;;30.19;27.42
6389;BME280;3227;42.654;23.360;2023-07-29T11:47:15;94174.16;;;30.30;27.48
6389;BME280;3227;42.654;23.360;2023-07-29T11:49:42;94164.53;;;30.50;27.21
6389;BME280;3227;42.654;23.360;2023-07-29T11:52:10;94110.44;;;30.33;27.20
6389;BME280;3227;42.654;23.360;2023-07-29T11:54:39;94168.97;;;30.81;27.23
6389;BME280;3227;42.654;23.360;2023-07-29T11:57:06;94102.06;;;30.49;27.24
6389;BME280;3227;42.654;23.360;2023-07-29T11:59:34;94175.03;;;30.72;26.92
6389;BME280;3227;42.654;23.360;2023-07-29T12:02:02;94170.72;;;30.39;27.31
6389;BME280;3227;42.654;23.360;2023-07-29T12:04:32;94163.16;;;30.46;27.44
6389;BME280;3227;42.654;23.360;2023-07-29T12:07:00;94157.97;;;30.44;27.51
6389;BME280;3227;42.654;23.360;2023-07-29T12:09:28;94132.19;;;30.37;26.99
6389;BME280;3227;42.654;23.360;2023-07-29T12:11:56;94151.38;;;30.71;27.33
6389;BME280;3227;42.654;23.360;2023-07-29T12:14:25;94153.97;;;30.91;27.07
6389;BME280;3227;42.654;23.360;2023-07-29T12:16:52;94148.50;;;31.04;26.91
6389;BME280;3227;42.654;23.360;2023-07-29T12:19:21;94155.13;;;31.19;26.68
6389;BME280;3227;42.654;23.360;2023-07-29T12:21:48;94153.81;;;31.34;26.64
6389;BME280;3227;42.654;23.360;2023-07-29T12:24:15;94145.28;;;31.31;26.04
6389;BME280;3227;42.654;23.360;2023-07-29T12:26:44;94153.97;;;30.91;25.97
6389;BME280;3227;42.654;23.360;2023-07-29T12:29:15;94140.91;;;30.69;26.38
6389;BME280;3227;42.654;23.360;2023-07-29T12:31:42;94140.44;;;30.43;26.80
6389;BME280;3227;42.654;23.360;2023-07-29T12:34:08;94134.94;;;30.35;26.57
6389;BME280;3227;42.654;23.360;2023-07-29T12:36:43;94141.09;;;30.56;26.38
6389;BME280;3227;42.654;23.360;2023-07-29T12:39:18;94076.84;;;30.45;26.35
6389;BME280;3227;42.654;23.360;2023-07-29T12:41:49;94136.22;;;31.03;26.37
6389;BME280;3227;42.654;23.360;2023-07-29T12:44:16;94134.88;;;31.09;25.81
6389;BME280;3227;42.654;23.360;2023-07-29T12:46:43;94105.09;;;30.86;25.70
6389;BME280;3227;42.654;23.360;2023-07-29T12:49:10;94133.06;;;31.09;25.65
6389;BME280;3227;42.654;23.360;2023-07-29T12:51:36;94121.41;;;30.91;25.89
6389;BME280;3227;42.654;23.360;2023-07-29T12:54:04;94126.22;;;31.07;25.60
6389;BME280;3227;42.654;23.360;2023-07-29T12:56:32;94064.56;;;30.85;25.41
6389;BME280;3227;42.654;23.360;2023-07-29T12:59:01;94126.09;;;31.48;25.21
6389;BME280;3227;42.654;23.360;2023-07-29T13:01:28;94134.13;;;31.67;24.42
6389;BME280;3227;42.654;23.360;2023-07-29T13:03:55;94132.06;;;31.81;23.79
6389;BME280;3227;42.654;23.360;2023-07-29T13:06:23;94130.97;;;31.83;23.79
6389;BME280;3227;42.654;23.360;2023-07-29T13:08:49;94135.31;;;31.94;23.81
6389;BME280;3227;42.654;23.360;2023-07-29T13:11:16;94128.34;;;32.02;23.54
6389;BME280;3227;42.654;23.360;2023-07-29T13:13:47;94126.13;;;32.17;23.30